Time;durP1;ratioP1;P1;durP2;ratioP2;P2;SDS_P1;SDS_P2;PMS_P1;PMS_P2;Temp;Humidity;BMP_temperature;BMP_pressure;BME280_temperature;BME280_humidity;BME280_pressure;Samples;Min_cycle;Max_cycle;Signal;HPM_P1;HPM_P2
2022/01/02 00:02:17;;;;;;;14.15;9.77;;;;;;;7.93;77.91;97304.31;4944529;29;20494;-81
2022/01/02 00:04:48;;;;;;;15.30;10.02;;;;;;;7.98;78.04;97302.91;4944693;29;20055;-81
2022/01/02 00:07:20;;;;;;;16.17;10.55;;;;;;;8.01;79.60;97307.81;4944177;29;20079;-80
2022/01/02 00:09:51;;;;;;;15.57;10.00;;;;;;;8.05;78.38;97303.16;4945339;29;20051;-81
2022/01/02 00:12:21;;;;;;;12.85;8.88;;;;;;;8.05;77.27;97297.94;4942378;29;20062;-81
2022/01/02 00:14:53;;;;;;;12.98;9.63;;;;;;;8.07;79.11;97300.38;4939483;29;20051;-81
2022/01/02 00:17:23;;;;;;;14.43;9.95;;;;;;;8.10;78.78;97305.28;4942283;29;20047;-81
2022/01/02 00:19:54;;;;;;;15.13;9.32;;;;;;;8.14;77.78;97296.25;4945810;29;20130;-81
2022/01/02 00:22:30;;;;;;;14.35;9.75;;;;;;;8.18;79.62;97298.38;4945303;29;20434;-81
2022/01/02 00:24:58;;;;;;;15.90;10.57;;;;;;;8.23;80.38;97301.34;4945750;29;20056;-81
2022/01/02 00:27:29;;;;;;;14.40;10.88;;;;;;;8.31;81.95;97302.38;4945915;29;20055;-81
2022/01/02 00:29:57;;;;;;;13.98;9.80;;;;;;;8.33;81.04;97295.25;4945913;29;20059;-80
2022/01/02 00:32:24;;;;;;;12.77;9.35;;;;;;;8.35;80.86;97294.16;4944558;29;20441;-81
2022/01/02 00:34:52;;;;;;;14.70;9.63;;;;;;;8.26;78.48;97295.03;4940004;29;20501;-81
2022/01/02 00:37:20;;;;;;;16.35;11.52;;;;;;;8.19;78.35;97297.41;4939909;29;20048;-81
2022/01/02 00:39:49;;;;;;;16.98;10.98;;;;;;;8.08;75.94;97296.84;4944039;29;20052;-81
2022/01/02 00:42:24;;;;;;;16.65;10.70;;;;;;;7.94;75.68;97291.19;4943773;29;20059;-80
2022/01/02 00:44:59;;;;;;;16.85;11.25;;;;;;;7.82;76.48;97287.97;4942882;29;20060;-81
2022/01/02 00:47:32;;;;;;;18.75;12.02;;;;;;;7.74;78.87;97285.31;4941808;29;20059;-81
2022/01/02 00:50:07;;;;;;;15.25;10.07;;;;;;;7.69;76.87;97286.72;4942822;29;20053;-81
2022/01/02 00:52:37;;;;;;;16.10;10.55;;;;;;;7.67;78.37;97284.25;4941269;29;20063;-81
2022/01/02 00:55:09;;;;;;;13.50;9.52;;;;;;;7.60;77.12;97284.00;4937852;29;20433;-81
2022/01/02 00:57:38;;;;;;;14.57;10.38;;;;;;;7.54;77.05;97274.25;4941053;29;20052;-81
2022/01/02 01:00:09;;;;;;;12.25;9.10;;;;;;;7.55;77.34;97262.06;4941452;29;20055;-81
2022/01/02 01:02:43;;;;;;;13.15;9.35;;;;;;;7.57;76.93;97262.75;4941855;29;20123;-81
2022/01/02 01:05:18;;;;;;;12.45;8.80;;;;;;;7.58;76.89;97253.97;4949531;29;20051;-81
2022/01/02 01:07:47;;;;;;;13.95;9.55;;;;;;;7.63;78.25;97256.94;4956255;29;20043;-81
2022/01/02 01:10:17;;;;;;;13.30;9.43;;;;;;;7.69;77.10;97261.53;4957178;29;20055;-80
2022/01/02 01:12:45;;;;;;;15.35;10.55;;;;;;;7.75;79.12;97247.97;4957783;29;20051;-80
2022/01/02 01:15:13;;;;;;;14.30;9.52;;;;;;;7.83;79.86;97247.25;4955194;29;20188;-81
2022/01/02 01:17:40;;;;;;;15.68;9.98;;;;;;;7.84;78.78;97252.28;4942945;29;20048;-81
2022/01/02 01:20:12;;;;;;;16.65;11.18;;;;;;;7.87;79.96;97255.53;4947500;29;20058;-81
2022/01/02 01:22:41;;;;;;;14.40;9.82;;;;;;;7.92;80.27;97266.31;4945502;29;20056;-81
2022/01/02 01:25:12;;;;;;;12.57;8.93;;;;;;;7.94;79.32;97279.97;4944946;29;20060;-81
2022/01/02 01:27:42;;;;;;;16.05;9.75;;;;;;;7.97;81.54;97285.69;4943530;29;20058;-81
2022/01/02 01:30:11;;;;;;;16.63;10.65;;;;;;;8.03;82.10;97285.09;4944511;29;20060;-81
2022/01/02 01:32:39;;;;;;;14.77;10.02;;;;;;;7.99;79.19;97280.34;4943249;29;20048;-80
2022/01/02 01:35:08;;;;;;;13.38;9.55;;;;;;;7.79;77.65;97277.06;4938089;29;20429;-81
2022/01/02 01:37:36;;;;;;;13.27;9.35;;;;;;;7.65;76.17;97273.19;4961042;23;20059;-87
2022/01/02 01:40:05;;;;;;;13.50;9.20;;;;;;;7.54;76.47;97281.19;4961039;29;20051;-88
2022/01/02 01:42:36;;;;;;;15.82;9.30;;;;;;;7.42;76.79;97286.59;4960686;28;20051;-85
2022/01/02 01:47:55;;;;;;;20.08;11.77;;;;;;;7.33;75.92;97261.50;4955902;28;20083;-87
2022/01/02 01:50:26;;;;;;;14.57;10.48;;;;;;;7.22;74.67;97274.69;4942821;29;20062;-89
2022/01/02 01:52:54;;;;;;;17.55;11.77;;;;;;;7.23;78.16;97271.09;4941686;29;20052;-89
2022/01/02 01:55:22;;;;;;;14.05;9.15;;;;;;;7.20;77.00;97266.22;4941374;29;20556;-84
2022/01/02 01:57:52;;;;;;;18.38;11.23;;;;;;;7.13;75.50;97259.97;4957834;29;20047;-80
2022/01/02 02:00:23;;;;;;;14.93;10.38;;;;;;;7.05;76.45;97258.09;4961494;28;20053;-80
2022/01/02 02:02:51;;;;;;;17.05;10.50;;;;;;;6.99;75.61;97259.47;4962024;28;20042;-82
2022/01/02 02:05:19;;;;;;;12.30;8.98;;;;;;;6.94;75.58;97248.72;4948373;29;20086;-85
2022/01/02 02:07:46;;;;;;;12.18;9.10;;;;;;;6.90;75.35;97260.31;4946709;29;20124;-85
2022/01/02 02:10:18;;;;;;;15.77;10.30;;;;;;;6.81;75.09;97258.59;4947570;29;20059;-86
2022/01/02 02:12:47;;;;;;;15.30;9.68;;;;;;;6.75;75.36;97253.97;4948759;29;20056;-85
2022/01/02 02:15:17;;;;;;;14.38;9.70;;;;;;;6.69;76.02;97262.31;4960907;29;20063;-82
2022/01/02 02:17:48;;;;;;;14.80;9.40;;;;;;;6.68;75.86;97263.28;4960939;29;20050;-80
2022/01/02 02:20:19;;;;;;;13.43;8.80;;;;;;;6.71;78.26;97256.03;4952377;29;20052;-82
2022/01/02 02:22:49;;;;;;;15.73;10.60;;;;;;;6.76;79.69;97237.47;4947516;29;20062;-87
2022/01/02 02:25:18;;;;;;;14.60;8.77;;;;;;;6.77;77.86;97236.50;4947101;29;20067;-85
2022/01/02 02:27:50;;;;;;;14.43;9.07;;;;;;;6.61;75.34;97229.31;4947378;29;20056;-86
2022/01/02 02:30:18;;;;;;;12.15;8.32;;;;;;;6.49;76.19;97228.66;4947338;29;20055;-87
2022/01/02 02:32:46;;;;;;;16.00;9.45;;;;;;;6.39;76.00;97225.28;4945834;29;20054;-82
2022/01/02 02:35:16;;;;;;;12.07;9.25;;;;;;;6.30;75.62;97221.75;4944712;29;20417;-82
2022/01/02 02:37:45;;;;;;;13.02;9.75;;;;;;;6.26;75.75;97219.59;4945330;29;20048;-84
2022/01/02 02:40:16;;;;;;;13.57;9.10;;;;;;;6.23;76.05;97214.66;4945795;29;20056;-88
2022/01/02 02:42:49;;;;;;;13.65;8.38;;;;;;;6.21;76.49;97211.41;4946586;29;20047;-83
2022/01/02 02:51:03;;;;;;;13.50;8.57;;;;;;;6.15;77.09;97221.38;4943293;29;20063;-85
2022/01/02 02:53:30;;;;;;;12.77;8.00;;;;;;;6.16;76.48;97209.22;4944348;29;20051;-85
2022/01/02 02:55:59;;;;;;;10.93;8.00;;;;;;;6.07;75.92;97200.50;4944771;29;20529;-83
2022/01/02 02:58:41;;;;;;;11.82;7.95;;;;;;;5.97;76.32;97204.91;4944660;29;20513;-83
2022/01/02 03:01:11;;;;;;;11.50;7.85;;;;;;;5.86;76.62;97198.06;4943993;29;20043;-85
2022/01/02 03:03:39;;;;;;;11.50;8.00;;;;;;;5.80;76.81;97198.59;4943111;29;20138;-86
2022/01/02 03:06:09;;;;;;;11.77;7.68;;;;;;;5.78;76.85;97200.50;4942534;29;20056;-85
2022/01/02 03:08:37;;;;;;;14.30;8.52;;;;;;;5.74;77.17;97194.78;4942336;29;20051;-84
2022/01/02 03:11:08;;;;;;;11.50;7.90;;;;;;;5.71;77.06;97189.88;4941010;29;20055;-83
2022/01/02 03:13:36;;;;;;;14.38;9.05;;;;;;;5.71;77.56;97187.31;4942126;29;20055;-81
2022/01/02 03:16:03;;;;;;;12.45;8.55;;;;;;;5.69;77.79;97173.69;4943774;29;20052;-84
2022/01/02 03:18:31;;;;;;;13.68;8.13;;;;;;;5.69;78.05;97165.09;4942899;29;20052;-80
2022/01/02 03:20:59;;;;;;;11.93;8.48;;;;;;;5.65;77.79;97168.91;4943172;29;20047;-80
2022/01/02 03:23:28;;;;;;;13.57;8.68;;;;;;;5.61;77.54;97168.34;4940164;29;20052;-81
2022/01/02 03:25:56;;;;;;;13.57;8.18;;;;;;;5.64;78.38;97157.75;4939924;29;20047;-83
2022/01/02 03:28:23;;;;;;;10.45;7.03;;;;;;;5.70;78.79;97159.75;4940759;29;20059;-84
2022/01/02 03:30:51;;;;;;;11.10;7.70;;;;;;;5.73;78.25;97163.88;4939987;29;20060;-85
2022/01/02 03:33:19;;;;;;;11.80;7.35;;;;;;;5.76;77.96;97150.66;4939697;29;20104;-79
2022/01/02 03:35:47;;;;;;;11.85;7.53;;;;;;;5.82;77.91;97157.88;4939647;29;20047;-83
2022/01/02 03:38:14;;;;;;;9.38;7.30;;;;;;;5.84;77.73;97153.38;4940698;29;20051;-82
2022/01/02 03:40:44;;;;;;;11.60;8.18;;;;;;;5.87;78.85;97153.09;4941614;29;20052;-80
2022/01/02 03:43:11;;;;;;;10.82;7.32;;;;;;;5.88;77.72;97148.72;4941937;29;20063;-80
2022/01/02 03:45:39;;;;;;;13.30;8.07;;;;;;;5.85;77.39;97143.81;4941355;29;20060;-81
2022/01/02 03:48:07;;;;;;;9.75;6.93;;;;;;;5.77;77.16;97144.50;4941134;29;20055;-83
2022/01/02 03:50:34;;;;;;;12.00;7.80;;;;;;;5.78;78.06;97143.56;4941497;29;20490;-81
2022/01/02 03:53:02;;;;;;;9.95;7.38;;;;;;;5.87;79.94;97139.31;4941647;29;20059;-82
2022/01/02 03:55:29;;;;;;;10.13;7.32;;;;;;;5.95;79.08;97142.06;4940816;29;20055;-83
2022/01/02 03:57:58;;;;;;;10.57;7.25;;;;;;;5.91;77.31;97148.44;4940438;29;20256;-85
2022/01/02 04:00:26;;;;;;;11.48;7.85;;;;;;;5.81;77.05;97129.53;4940967;29;20052;-79
2022/01/02 04:02:54;;;;;;;10.10;7.10;;;;;;;5.72;77.33;97129.38;4942681;29;20063;-83
2022/01/02 04:05:21;;;;;;;11.90;7.25;;;;;;;5.65;77.16;97120.53;4943870;29;20047;-87
2022/01/02 04:07:49;;;;;;;11.20;7.70;;;;;;;5.60;77.08;97109.81;4944349;29;20413;-86
2022/01/02 04:10:19;;;;;;;9.90;6.82;;;;;;;5.55;76.95;97093.84;4944174;29;20055;-87
2022/01/02 04:12:47;;;;;;;11.25;6.95;;;;;;;5.47;77.26;97094.56;4943874;29;20051;-87
2022/01/02 04:15:16;;;;;;;9.05;6.72;;;;;;;5.45;78.43;97106.00;4943086;29;20421;-82
2022/01/02 04:17:44;;;;;;;10.80;6.75;;;;;;;5.47;78.10;97093.75;4942697;29;20047;-81
2022/01/02 04:20:13;;;;;;;10.63;6.68;;;;;;;5.47;78.09;97084.22;4942452;29;20418;-83
2022/01/02 04:22:41;;;;;;;9.07;6.82;;;;;;;5.49;78.03;97081.50;4943864;29;20048;-88
2022/01/02 04:25:09;;;;;;;10.27;6.38;;;;;;;5.52;78.01;97084.59;4944286;29;20064;-88
2022/01/02 04:27:38;;;;;;;10.95;6.78;;;;;;;5.55;78.40;97078.31;4943610;29;20051;-90
2022/01/02 04:30:09;;;;;;;8.52;5.70;;;;;;;5.63;78.69;97082.81;4943481;29;20490;-85
2022/01/02 04:32:38;;;;;;;7.38;5.72;;;;;;;5.71;77.96;97088.13;4944399;29;20055;-84
2022/01/02 04:35:06;;;;;;;8.93;6.28;;;;;;;5.73;78.21;97088.81;4944385;29;20047;-88
2022/01/02 04:37:34;;;;;;;8.20;5.70;;;;;;;5.72;77.41;97090.56;4944402;29;20059;-87
2022/01/02 04:40:02;;;;;;;10.35;6.10;;;;;;;5.73;78.58;97097.38;4944803;29;20517;-89
2022/01/02 04:42:29;;;;;;;11.32;7.93;;;;;;;5.83;79.57;97083.59;4944791;29;20445;-88
2022/01/02 04:44:57;;;;;;;10.43;6.30;;;;;;;5.86;78.23;97080.72;4944433;29;20062;-84
2022/01/02 04:47:24;;;;;;;9.30;7.30;;;;;;;5.84;77.76;97080.03;4943751;29;20047;-81
2022/01/02 04:49:53;;;;;;;9.93;8.07;;;;;;;5.92;81.10;97075.78;4944697;29;20120;-85
2022/01/02 04:52:21;;;;;;;9.57;6.88;;;;;;;6.04;81.66;97068.72;4943499;29;20047;-88
2022/01/02 04:54:49;;;;;;;9.18;6.60;;;;;;;6.12;80.94;97061.06;4943772;29;20054;-82
2022/01/02 04:57:16;;;;;;;7.18;5.80;;;;;;;6.15;79.16;97060.75;4943009;29;20435;-83
2022/01/02 04:59:44;;;;;;;8.10;6.00;;;;;;;6.09;78.21;97048.38;4943446;29;20592;-83
2022/01/02 05:02:11;;;;;;;7.13;5.50;;;;;;;6.06;77.40;97059.03;4943551;29;20545;-82
2022/01/02 05:04:39;;;;;;;10.95;6.20;;;;;;;6.06;79.41;97053.84;4942835;29;20047;-85
2022/01/02 05:07:08;;;;;;;11.32;6.80;;;;;;;6.14;81.79;97061.75;4942303;29;20129;-85
2022/01/02 05:09:36;;;;;;;10.18;5.97;;;;;;;6.23;80.67;97070.44;4941572;29;20063;-83
2022/01/02 05:12:04;;;;;;;9.57;6.55;;;;;;;6.30;80.76;97062.91;4942198;29;20063;-84
2022/01/02 05:14:31;;;;;;;11.10;6.78;;;;;;;6.37;81.60;97072.53;4943599;29;20077;-86
2022/01/02 05:16:59;;;;;;;9.73;6.68;;;;;;;6.46;81.66;97076.03;4943203;29;20048;-86
2022/01/02 05:19:26;;;;;;;8.30;6.65;;;;;;;6.50;80.54;97076.56;4942298;29;20054;-84
2022/01/02 05:21:54;;;;;;;10.98;7.45;;;;;;;6.47;80.54;97076.84;4943235;29;20091;-85
2022/01/02 05:24:23;;;;;;;8.35;6.20;;;;;;;6.36;78.57;97083.03;4942585;29;20052;-85
2022/01/02 05:26:53;;;;;;;10.40;7.38;;;;;;;6.36;79.23;97076.09;4941748;29;20051;-84
2022/01/02 05:29:21;;;;;;;7.65;5.68;;;;;;;6.35;77.92;97078.81;4942129;29;20060;-86
2022/01/02 05:31:48;;;;;;;9.05;7.10;;;;;;;6.35;79.31;97078.81;4941307;29;20052;-83
2022/01/02 05:34:16;;;;;;;8.50;6.28;;;;;;;6.37;79.19;97062.16;4942219;29;20062;-83
2022/01/02 05:36:48;;;;;;;10.18;6.22;;;;;;;6.35;77.57;97068.47;4944123;29;20221;-78
2022/01/02 05:39:17;;;;;;;9.15;6.95;;;;;;;6.33;78.30;97070.38;4944220;29;20482;-81
2022/01/02 05:41:47;;;;;;;9.30;6.50;;;;;;;6.29;77.01;97056.06;4943974;29;20055;-79
2022/01/02 05:44:15;;;;;;;10.70;6.80;;;;;;;6.27;78.33;97053.63;4943391;29;20530;-80
2022/01/02 05:46:43;;;;;;;11.45;7.05;;;;;;;6.27;77.91;97063.16;4943649;29;20078;-85
2022/01/02 05:49:12;;;;;;;8.20;6.55;;;;;;;6.27;79.70;97056.22;4944205;29;20048;-81
2022/01/02 05:51:40;;;;;;;7.68;5.82;;;;;;;6.26;78.05;97049.41;4943571;29;20059;-83
2022/01/02 05:54:08;;;;;;;8.50;5.90;;;;;;;6.18;76.34;97042.34;4943017;29;20058;-81
2022/01/02 05:56:36;;;;;;;8.88;5.70;;;;;;;6.04;76.43;97035.06;4946817;29;20071;-89
2022/01/02 05:59:05;;;;;;;8.57;5.18;;;;;;;5.93;76.36;97027.44;4946722;29;20047;-90
2022/01/02 06:01:33;;;;;;;6.93;4.97;;;;;;;5.87;76.36;97028.81;4946498;29;20056;-86
2022/01/02 06:04:01;;;;;;;10.07;6.13;;;;;;;5.83;76.29;97021.47;4947451;29;20060;-85
2022/01/02 06:06:28;;;;;;;11.18;6.85;;;;;;;5.77;76.37;97018.50;4946487;29;20048;-84
2022/01/02 06:08:56;;;;;;;7.15;5.40;;;;;;;5.74;76.57;97013.59;4946606;29;20063;-88
2022/01/02 06:11:24;;;;;;;8.57;5.72;;;;;;;5.71;76.13;97006.13;4947086;29;20058;-85
2022/01/02 06:13:51;;;;;;;7.68;5.60;;;;;;;5.70;76.70;97014.81;4945930;29;20537;-86
2022/01/02 06:16:21;;;;;;;8.13;6.07;;;;;;;5.67;76.30;97012.53;4945912;29;20052;-86
2022/01/02 06:18:48;;;;;;;6.25;4.88;;;;;;;5.62;75.97;97001.78;4946592;29;20648;-86
2022/01/02 06:21:16;;;;;;;5.90;4.75;;;;;;;5.54;76.20;96996.50;4945796;29;20074;-88
2022/01/02 06:23:44;;;;;;;7.20;5.38;;;;;;;5.47;76.05;96985.88;4946190;29;20059;-83
2022/01/02 06:26:12;;;;;;;8.05;5.47;;;;;;;5.46;76.97;96996.38;4946294;29;20137;-85
2022/01/02 06:28:39;;;;;;;8.05;5.63;;;;;;;5.45;76.50;96992.97;4946568;29;20095;-85
2022/01/02 06:31:08;;;;;;;7.85;5.82;;;;;;;5.45;76.61;96981.81;4945840;29;20062;-85
2022/01/02 06:33:38;;;;;;;7.63;5.95;;;;;;;5.44;76.44;96980.97;4946814;29;20054;-87
2022/01/02 06:36:06;;;;;;;9.05;5.40;;;;;;;5.43;76.30;96983.72;4945272;29;20055;-84
2022/01/02 06:38:33;;;;;;;7.13;5.13;;;;;;;5.46;76.73;96986.00;4944077;29;20078;-87
2022/01/02 06:41:01;;;;;;;6.80;5.30;;;;;;;5.56;78.22;96979.06;4944568;29;20048;-85
2022/01/02 06:43:28;;;;;;;7.78;5.57;;;;;;;5.70;79.70;96978.59;4944215;29;20059;-86
2022/01/02 06:45:56;;;;;;;6.68;4.72;;;;;;;5.79;78.63;96982.09;4943796;29;20059;-89
2022/01/02 06:48:24;;;;;;;5.50;4.63;;;;;;;5.82;77.03;96978.44;4944589;29;20051;-83
2022/01/02 06:50:52;;;;;;;6.35;4.88;;;;;;;5.83;76.94;96977.47;4958764;28;20120;-88
2022/01/02 06:53:20;;;;;;;5.97;4.32;;;;;;;5.89;77.00;96982.06;4962275;28;20042;-81
2022/01/02 06:55:48;;;;;;;6.68;5.13;;;;;;;5.92;75.88;96968.81;4962056;28;20048;-84
2022/01/02 06:58:15;;;;;;;5.93;4.70;;;;;;;5.93;76.71;96978.25;4951999;29;20107;-88
2022/01/02 07:00:43;;;;;;;6.95;5.18;;;;;;;6.00;78.58;96981.09;4947721;29;20044;-87
2022/01/02 07:03:11;;;;;;;9.38;6.03;;;;;;;6.07;77.61;96982.16;4947051;29;20055;-89
2022/01/02 07:05:39;;;;;;;7.10;4.75;;;;;;;6.10;76.59;96968.91;4947691;29;20059;-87
2022/01/02 07:08:07;;;;;;;7.07;5.18;;;;;;;6.12;76.91;96970.41;4957307;28;20056;-80
2022/01/02 07:10:35;;;;;;;6.07;4.25;;;;;;;6.17;76.50;96970.78;4962184;28;20058;-81
2022/01/02 07:13:03;;;;;;;6.68;4.45;;;;;;;6.22;76.57;96959.16;4955839;28;20056;-85
2022/01/02 07:15:30;;;;;;;6.75;5.60;;;;;;;6.27;78.07;96962.13;4946484;29;20055;-85
2022/01/02 07:17:58;;;;;;;5.75;4.45;;;;;;;6.31;77.71;96959.09;4946991;29;20064;-85
2022/01/02 07:20:26;;;;;;;6.68;5.00;;;;;;;6.30;76.18;96964.44;4946604;29;20062;-89
2022/01/02 07:22:53;;;;;;;8.63;6.18;;;;;;;6.28;76.90;96962.00;4946707;29;20052;-87
2022/01/02 07:25:22;;;;;;;6.60;4.85;;;;;;;6.34;79.49;96963.16;4946326;29;20062;-86
2022/01/02 07:27:50;;;;;;;7.75;5.85;;;;;;;6.42;80.30;96968.44;4945548;29;20048;-87
2022/01/02 07:30:17;;;;;;;6.60;4.95;;;;;;;6.52;81.14;96974.38;4945559;29;20058;-86
2022/01/02 07:32:47;;;;;;;5.88;4.85;;;;;;;6.56;79.07;96985.28;4946953;29;20115;-81
2022/01/02 07:35:14;;;;;;;6.40;4.97;;;;;;;6.56;78.09;96998.25;4946226;29;20058;-83
2022/01/02 07:37:42;;;;;;;7.28;4.88;;;;;;;6.57;78.28;97000.66;4941437;29;20059;-84
2022/01/02 07:40:10;;;;;;;7.50;4.63;;;;;;;6.59;77.15;97003.94;4996834;23;20054;-80
2022/01/02 07:42:39;;;;;;;6.78;5.15;;;;;;;6.59;76.74;97014.31;4957090;29;20402;-80
2022/01/02 07:45:07;;;;;;;6.80;5.35;;;;;;;6.57;75.61;97010.22;4957336;29;20075;-79
2022/01/02 07:47:35;;;;;;;6.30;4.97;;;;;;;6.46;74.26;97003.47;4956178;29;20132;-78
2022/01/02 07:50:03;;;;;;;8.35;5.88;;;;;;;6.34;73.85;97000.28;4938203;29;20051;-79
2022/01/02 07:52:31;;;;;;;7.30;5.80;;;;;;;6.30;76.45;96990.34;4936567;29;20060;-77
2022/01/02 07:54:58;;;;;;;8.43;5.75;;;;;;;6.29;75.90;96986.13;4936514;29;20103;-78
2022/01/02 07:57:26;;;;;;;6.80;5.15;;;;;;;6.26;74.86;96976.88;4936404;29;20052;-78
2022/01/02 07:59:55;;;;;;;6.40;5.18;;;;;;;6.23;74.40;96979.75;4936622;29;20055;-79
2022/01/02 08:02:35;;;;;;;5.55;4.53;;;;;;;6.19;74.56;96973.22;4937054;29;20056;-79
2022/01/02 08:05:03;;;;;;;6.55;4.75;;;;;;;6.19;74.24;96958.50;4936955;29;20059;-80
2022/01/02 08:07:31;;;;;;;5.97;4.43;;;;;;;6.18;74.23;96975.00;4936728;29;20097;-79
2022/01/02 08:09:58;;;;;;;5.55;4.22;;;;;;;6.18;74.73;96974.19;4936427;29;20055;-80
2022/01/02 08:12:26;;;;;;;6.20;4.32;;;;;;;6.24;75.17;96963.25;4936355;29;20051;-79
2022/01/02 08:14:58;;;;;;;6.25;3.90;;;;;;;6.27;74.67;96973.31;4936966;29;20146;-79
2022/01/02 08:17:27;;;;;;;6.38;4.43;;;;;;;6.30;74.24;96967.84;4936365;29;20533;-79
2022/01/02 08:19:54;;;;;;;6.75;5.38;;;;;;;6.33;74.31;96967.53;4936479;29;20068;-78
2022/01/02 08:22:22;;;;;;;6.80;4.70;;;;;;;6.37;74.67;96963.69;4936255;29;20055;-78
2022/01/02 08:24:50;;;;;;;7.78;5.60;;;;;;;6.42;74.33;96968.44;4936385;29;20043;-78
2022/01/02 08:27:17;;;;;;;24.67;14.85;;;;;;;6.46;74.07;96968.97;4936436;29;20441;-79
2022/01/02 08:29:45;;;;;;;9.18;5.68;;;;;;;6.47;73.56;96963.66;4936510;29;20055;-79
2022/01/02 08:32:14;;;;;;;8.30;5.20;;;;;;;6.47;73.22;96968.84;4936252;29;20060;-78
2022/01/02 08:34:42;;;;;;;7.78;5.80;;;;;;;6.49;73.53;96972.06;4936611;29;20063;-79
2022/01/02 08:37:09;;;;;;;7.45;4.75;;;;;;;6.54;73.30;96962.09;4935705;29;20047;-78
2022/01/02 08:39:38;;;;;;;7.57;5.53;;;;;;;6.59;73.02;96967.66;4936468;29;20063;-79
2022/01/02 08:42:07;;;;;;;8.77;5.45;;;;;;;6.65;74.61;96970.59;4939736;29;20051;-80
2022/01/02 08:44:37;;;;;;;8.15;5.28;;;;;;;6.73;73.52;96962.91;4938795;29;20417;-80
2022/01/02 08:47:06;;;;;;;6.10;5.22;;;;;;;6.83;74.61;96973.22;4938538;29;20114;-80
2022/01/02 08:49:36;;;;;;;6.25;4.65;;;;;;;6.85;73.41;96964.31;4937935;29;20052;-79
2022/01/02 08:52:04;;;;;;;6.20;5.10;;;;;;;6.88;73.04;96969.19;4937542;29;20050;-79
2022/01/02 08:54:32;;;;;;;7.70;5.28;;;;;;;6.93;74.23;96968.75;4936574;29;20056;-79
2022/01/02 08:57:02;;;;;;;8.13;6.70;;;;;;;7.03;76.15;96960.91;4935970;29;20052;-79
2022/01/02 08:59:29;;;;;;;16.13;10.48;;;;;;;7.10;75.02;96951.53;4940901;29;20075;-80
2022/01/02 09:01:58;;;;;;;10.55;7.60;;;;;;;7.16;74.30;96948.34;4937010;29;20490;-75
2022/01/02 09:04:25;;;;;;;7.95;5.07;;;;;;;7.23;73.97;96946.75;4935653;29;20439;-75
2022/01/02 09:06:54;;;;;;;5.28;4.35;;;;;;;7.30;72.65;96946.97;4937371;29;20059;-80
2022/01/02 09:09:24;;;;;;;5.18;4.13;;;;;;;7.32;72.66;96943.25;4936138;29;20078;-75
2022/01/02 09:11:52;;;;;;;7.65;5.00;;;;;;;7.38;72.31;96950.44;4935241;29;20510;-75
2022/01/02 09:14:20;;;;;;;7.95;5.38;;;;;;;7.45;72.78;96952.41;4935968;29;20047;-75
2022/01/02 09:16:47;;;;;;;6.85;5.35;;;;;;;7.57;75.28;96951.19;4935309;29;20052;-75
2022/01/02 09:19:15;;;;;;;7.20;4.85;;;;;;;7.71;75.26;96953.19;4935303;29;20506;-76
2022/01/02 09:21:43;;;;;;;6.38;4.65;;;;;;;7.83;75.20;96954.56;4934866;29;20481;-75
2022/01/02 09:24:11;;;;;;;5.90;4.45;;;;;;;7.92;73.33;96957.22;4934718;29;20052;-75
2022/01/02 09:26:39;;;;;;;5.82;4.78;;;;;;;7.97;74.39;96944.56;4935010;29;20091;-77
2022/01/02 09:29:06;;;;;;;5.50;4.78;;;;;;;8.01;73.32;96941.47;4935094;29;20051;-76
2022/01/02 09:31:34;;;;;;;6.72;5.15;;;;;;;8.03;72.72;96941.34;4935049;29;20494;-76
2022/01/02 09:34:06;;;;;;;5.85;5.20;;;;;;;8.01;72.53;96946.69;4934928;29;20047;-76
2022/01/02 09:36:34;;;;;;;6.78;5.55;;;;;;;8.03;72.62;96951.72;4934739;29;20056;-76
2022/01/02 09:39:02;;;;;;;6.95;5.00;;;;;;;8.02;71.72;96947.50;4934495;29;20066;-75
2022/01/02 09:41:31;;;;;;;7.57;4.90;;;;;;;8.01;71.26;96966.66;4934126;29;20411;-75
2022/01/02 09:43:59;;;;;;;7.97;5.82;;;;;;;8.05;71.48;96958.41;4934709;29;20058;-75
2022/01/02 09:46:28;;;;;;;7.13;5.30;;;;;;;8.12;70.62;96966.38;4934163;29;20088;-75
2022/01/02 09:48:56;;;;;;;6.32;5.28;;;;;;;8.18;70.44;96970.94;4934544;29;20083;-75
2022/01/02 09:51:26;;;;;;;6.65;5.35;;;;;;;8.30;70.70;96968.06;4934707;29;20044;-75
2022/01/02 09:53:55;;;;;;;7.05;5.65;;;;;;;8.39;70.89;96967.09;4935040;29;20048;-75
2022/01/02 09:56:23;;;;;;;8.57;6.85;;;;;;;8.53;73.24;96970.91;4936989;29;20062;-75
2022/01/02 09:58:52;;;;;;;13.10;8.80;;;;;;;8.73;74.70;96977.44;4942050;29;20051;-75
2022/01/02 10:01:21;;;;;;;12.65;8.32;;;;;;;8.92;72.40;96984.13;4942882;29;20044;-76
2022/01/02 10:03:51;;;;;;;21.75;14.63;;;;;;;9.13;71.82;96985.44;4941059;29;20059;-76
2022/01/02 10:06:19;;;;;;;10.88;7.75;;;;;;;9.29;73.44;96975.00;4936447;29;20058;-76
2022/01/02 10:08:47;;;;;;;8.40;6.00;;;;;;;9.42;72.23;96967.53;4935389;29;20076;-76
2022/01/02 10:11:19;;;;;;;8.88;6.47;;;;;;;9.48;73.68;96964.22;4935305;29;20055;-75
2022/01/02 10:13:50;;;;;;;8.82;6.05;;;;;;;9.52;71.38;96963.91;4934933;29;20427;-76
2022/01/02 10:16:25;;;;;;;5.55;4.35;;;;;;;9.58;69.51;96948.44;4934328;29;20051;-75
2022/01/02 10:18:55;;;;;;;6.25;4.18;;;;;;;9.67;69.73;96957.03;4934794;29;20469;-76
2022/01/02 10:21:34;;;;;;;4.90;4.05;;;;;;;9.74;70.23;96951.97;4937794;29;20063;-75
2022/01/02 10:24:16;;;;;;;5.53;4.40;;;;;;;9.79;69.38;96953.09;4938039;29;20063;-76
2022/01/02 10:27:06;;;;;;;6.22;4.07;;;;;;;9.84;67.98;96957.81;4937897;29;20052;-75
2022/01/02 10:29:51;;;;;;;9.55;4.63;;;;;;;9.86;67.39;96956.66;4937669;29;20533;-76
2022/01/02 10:32:31;;;;;;;8.98;6.10;;;;;;;9.88;66.38;96949.50;4938455;29;20056;-76
2022/01/02 10:35:11;;;;;;;7.45;5.57;;;;;;;9.92;66.13;96949.94;4938160;29;20058;-76
2022/01/02 10:37:39;;;;;;;10.65;6.32;;;;;;;9.90;68.31;96951.91;4937848;29;20051;-76
2022/01/02 10:40:25;;;;;;;7.28;5.78;;;;;;;9.95;65.88;96954.00;4937901;29;20051;-77
2022/01/02 10:42:52;;;;;;;6.55;5.13;;;;;;;10.03;67.58;96941.75;4938866;29;20048;-77
2022/01/02 10:45:34;;;;;;;5.53;4.70;;;;;;;10.15;65.61;96942.22;4936281;29;20054;-76
2022/01/02 10:48:06;;;;;;;5.47;4.72;;;;;;;10.29;66.20;96941.50;4936481;29;20442;-77
2022/01/02 10:50:36;;;;;;;8.70;5.15;;;;;;;10.46;66.10;96941.41;4937610;29;20520;-77
2022/01/02 10:53:16;;;;;;;5.53;4.72;;;;;;;10.66;68.21;96931.34;4937531;29;20059;-76
2022/01/02 10:55:46;;;;;;;10.23;5.60;;;;;;;10.83;68.89;96922.41;4937661;29;20056;-77
2022/01/02 10:58:14;;;;;;;8.00;5.97;;;;;;;10.95;65.95;96935.84;4938060;29;20410;-77
2022/01/02 11:00:42;;;;;;;9.13;6.10;;;;;;;11.05;65.98;96940.84;4937671;29;20054;-76
2022/01/02 11:03:12;;;;;;;7.93;6.25;;;;;;;11.04;67.70;96933.97;4937261;29;20557;-77
2022/01/02 11:05:41;;;;;;;9.07;6.43;;;;;;;11.00;68.46;96930.09;4937623;29;20052;-76
2022/01/02 11:08:08;;;;;;;7.47;5.85;;;;;;;10.95;67.93;96922.78;4936953;29;20063;-76
2022/01/02 11:10:36;;;;;;;21.02;8.18;;;;;;;10.86;66.21;96911.59;4937122;29;20062;-77
2022/01/02 11:13:05;;;;;;;9.85;6.60;;;;;;;10.79;65.65;96902.06;4937355;29;20048;-76
2022/01/02 11:15:34;;;;;;;8.38;6.07;;;;;;;10.71;65.22;96885.50;4937111;29;20051;-77
2022/01/02 11:18:02;;;;;;;6.80;5.28;;;;;;;10.67;64.97;96889.44;4936914;29;20469;-77
2022/01/02 11:20:33;;;;;;;7.40;5.78;;;;;;;10.58;64.67;96887.84;4937006;29;20110;-77
2022/01/02 11:23:06;;;;;;;5.38;4.75;;;;;;;10.51;64.59;96876.50;4936658;29;20054;-77
2022/01/02 11:25:40;;;;;;;9.38;6.63;;;;;;;10.47;64.93;96872.59;4937101;29;20494;-77
2022/01/02 11:28:23;;;;;;;13.77;8.50;;;;;;;10.46;65.12;96871.81;4936703;29;20048;-77
2022/01/02 11:30:51;;;;;;;20.58;12.38;;;;;;;10.45;65.95;96861.53;4936413;29;20502;-76
2022/01/02 11:33:20;;;;;;;13.93;7.85;;;;;;;10.47;66.21;96872.59;4936588;29;20059;-77
2022/01/02 11:35:50;;;;;;;8.35;6.53;;;;;;;10.50;66.81;96886.13;4936718;29;20062;-76
2022/01/02 11:38:19;;;;;;;8.80;6.95;;;;;;;10.56;69.23;96879.41;4936923;29;20059;-77
2022/01/02 11:40:57;;;;;;;8.98;6.82;;;;;;;10.57;67.56;96885.44;4936662;29;20051;-76
2022/01/02 11:43:53;;;;;;;6.68;5.70;;;;;;;10.57;67.38;96888.84;4936634;29;20473;-76
2022/01/02 11:46:23;;;;;;;8.20;6.10;;;;;;;10.58;69.21;96900.88;4935753;29;20514;-76
2022/01/02 11:49:15;;;;;;;10.15;6.78;;;;;;;10.58;70.11;96903.50;4936354;29;20459;-76
2022/01/02 11:52:23;;;;;;;9.45;6.88;;;;;;;10.55;67.18;96895.22;4936402;29;20055;-76
2022/01/02 11:54:56;;;;;;;8.77;6.88;;;;;;;10.53;68.23;96890.19;4936526;29;20055;-76
2022/01/02 11:57:51;;;;;;;53.53;36.45;;;;;;;10.50;65.63;96882.72;4935878;29;20498;-77